Time;durP1;ratioP1;P1;durP2;ratioP2;P2;SDS_P1;SDS_P2;PMS_P1;PMS_P2;Temp;Humidity;BMP_temperature;BMP_pressure;BME280_temperature;BME280_humidity;BME280_pressure;Samples;Min_cycle;Max_cycle;Signal;HPM_P1;HPM_P2
2022/04/23 00:01:18;;;;;;;4.10;3.80;;;17.80;59.00;;;;;;5072792;28;20499;-73
2022/04/23 00:03:46;;;;;;;4.73;4.37;;;17.80;59.10;;;;;;5059191;28;20825;-73
2022/04/23 00:06:14;;;;;;;4.03;3.73;;;17.80;59.10;;;;;;5072441;28;20917;-73
2022/04/23 00:08:42;;;;;;;4.20;3.90;;;17.80;59.10;;;;;;5071975;28;20979;-73
2022/04/23 00:11:11;;;;;;;3.80;3.50;;;17.80;59.10;;;;;;5071230;28;20439;-73
2022/04/23 00:13:39;;;;;;;3.83;3.53;;;17.80;59.10;;;;;;5071976;28;20466;-72
2022/04/23 00:16:07;;;;;;;4.10;3.80;;;17.80;59.20;;;;;;5072080;28;20434;-73
2022/04/23 00:18:37;;;;;;;4.10;3.80;;;17.80;59.30;;;;;;5065501;28;20558;-73
2022/04/23 00:21:06;;;;;;;4.57;4.17;;;17.80;59.20;;;;;;5071759;28;20879;-73
2022/04/23 00:23:34;;;;;;;3.97;3.67;;;17.80;59.30;;;;;;5071630;28;20493;-73
2022/04/23 00:26:03;;;;;;;4.27;3.97;;;17.80;59.30;;;;;;5060332;28;20478;-73
2022/04/23 00:28:31;;;;;;;4.13;3.83;;;17.80;59.40;;;;;;5068305;28;21002;-73
2022/04/23 00:31:04;;;;;;;4.00;3.70;;;17.70;59.30;;;;;;5072104;28;20431;-73
2022/04/23 00:33:36;;;;;;;4.30;4.00;;;17.70;59.30;;;;;;5064958;28;20471;-73
2022/04/23 00:36:06;;;;;;;4.13;3.73;;;17.70;59.30;;;;;;5060458;28;20491;-72
2022/04/23 00:38:34;;;;;;;3.80;3.50;;;17.70;59.30;;;;;;5071634;28;20935;-72
2022/04/23 00:41:02;;;;;;;4.30;3.90;;;17.70;59.40;;;;;;5070010;28;20518;-73
2022/04/23 00:43:33;;;;;;;4.03;3.70;;;17.70;59.50;;;;;;5071123;28;20475;-73
2022/04/23 00:46:03;;;;;;;3.90;3.60;;;17.70;59.40;;;;;;5071610;28;20804;-73
2022/04/23 00:48:32;;;;;;;3.90;3.60;;;17.70;59.50;;;;;;5065309;28;20497;-73
2022/04/23 00:51:03;;;;;;;3.57;3.33;;;17.70;59.60;;;;;;5067716;28;20444;-73
2022/04/23 00:53:33;;;;;;;3.97;3.67;;;17.70;59.70;;;;;;5071205;28;20466;-73
2022/04/23 00:56:01;;;;;;;4.67;4.37;;;17.70;59.60;;;;;;5068759;28;20454;-74
2022/04/23 00:58:29;;;;;;;4.60;4.20;;;17.70;59.70;;;;;;5071364;28;20579;-73
2022/04/23 01:00:57;;;;;;;3.93;3.63;;;17.70;59.70;;;;;;5071909;28;20869;-73
2022/04/23 01:03:26;;;;;;;3.90;3.60;;;17.70;59.60;;;;;;5060617;28;21119;-73
2022/04/23 01:05:55;;;;;;;4.30;4.00;;;17.70;59.70;;;;;;5060884;28;20430;-73
2022/04/23 01:08:25;;;;;;;3.90;3.60;;;17.70;59.60;;;;;;5071146;28;20461;-73
2022/04/23 01:10:55;;;;;;;3.90;3.60;;;17.70;59.70;;;;;;5071073;28;20874;-73
2022/04/23 01:13:25;;;;;;;4.07;3.77;;;17.70;59.70;;;;;;5070842;28;20469;-73
2022/04/23 01:16:00;;;;;;;4.43;3.60;;;17.70;59.90;;;;;;5071369;28;20441;-73
2022/04/23 01:18:30;;;;;;;4.10;3.73;;;17.70;59.80;;;;;;5055734;28;20494;-73
2022/04/23 01:21:01;;;;;;;4.03;3.73;;;17.60;59.70;;;;;;5061547;28;20893;-73
2022/04/23 01:23:32;;;;;;;4.00;3.70;;;17.60;59.70;;;;;;5070879;28;20523;-73
2022/04/23 01:26:00;;;;;;;3.70;3.40;;;17.70;59.90;;;;;;5067710;28;20450;-73
2022/04/23 01:28:29;;;;;;;4.00;3.60;;;17.60;60.00;;;;;;5070815;28;20489;-73
2022/04/23 01:30:58;;;;;;;5.40;3.67;;;17.60;60.00;;;;;;5071489;28;20434;-73
2022/04/23 01:33:26;;;;;;;4.30;3.93;;;17.60;60.00;;;;;;5062432;28;20479;-73
2022/04/23 01:35:54;;;;;;;3.97;3.57;;;17.60;59.90;;;;;;5059773;28;20470;-73
2022/04/23 01:38:23;;;;;;;4.00;3.70;;;17.60;60.00;;;;;;5072895;28;20836;-73
2022/04/23 01:40:52;;;;;;;4.37;3.97;;;17.60;60.10;;;;;;5065462;28;20543;-73
2022/04/23 01:43:20;;;;;;;4.57;4.17;;;17.60;59.90;;;;;;5074899;28;20507;-73
2022/04/23 01:45:48;;;;;;;3.80;3.60;;;17.60;60.00;;;;;;5075028;28;20537;-73
2022/04/23 01:48:16;;;;;;;4.40;4.10;;;17.60;60.10;;;;;;5075379;28;20477;-73
2022/04/23 01:50:45;;;;;;;3.93;3.63;;;17.60;60.00;;;;;;5068915;28;20927;-73
2022/04/23 01:53:13;;;;;;;3.73;3.50;;;17.60;60.10;;;;;;5074460;28;20462;-73
2022/04/23 01:55:42;;;;;;;4.27;3.87;;;17.60;60.00;;;;;;5073566;28;20470;-74
2022/04/23 01:58:10;;;;;;;4.00;3.70;;;17.60;60.10;;;;;;5074608;28;20450;-73
2022/04/23 02:00:39;;;;;;;3.87;3.57;;;17.60;60.10;;;;;;5075205;28;20959;-73
2022/04/23 02:03:07;;;;;;;3.80;3.50;;;17.60;60.10;;;;;;5074253;28;20466;-73
2022/04/23 02:05:38;;;;;;;4.07;3.77;;;17.60;60.00;;;;;;5061123;28;20454;-73
2022/04/23 02:08:09;;;;;;;4.30;4.00;;;17.60;60.20;;;;;;5074739;28;20469;-74
2022/04/23 02:10:37;;;;;;;3.77;3.47;;;17.60;60.10;;;;;;5067675;28;20469;-72
2022/04/23 02:13:06;;;;;;;3.90;3.60;;;17.60;60.00;;;;;;5074214;28;20881;-73
2022/04/23 02:15:34;;;;;;;4.00;3.70;;;17.60;60.00;;;;;;5074401;28;21133;-73
2022/04/23 02:18:03;;;;;;;4.20;3.90;;;17.60;60.00;;;;;;5074194;28;21041;-73
2022/04/23 02:20:32;;;;;;;3.80;3.50;;;17.50;59.90;;;;;;5073802;28;20473;-73
2022/04/23 02:23:03;;;;;;;3.73;3.43;;;17.60;60.10;;;;;;5074120;28;20975;-73
2022/04/23 02:25:35;;;;;;;4.70;4.30;;;17.50;60.00;;;;;;5066333;28;20454;-73
2022/04/23 02:28:04;;;;;;;3.93;3.63;;;17.50;60.10;;;;;;5073945;28;20461;-73
2022/04/23 02:30:33;;;;;;;4.30;4.00;;;17.50;60.00;;;;;;5074770;28;20911;-73
2022/04/23 02:33:02;;;;;;;4.47;4.17;;;17.50;60.10;;;;;;5070989;28;20471;-72
2022/04/23 02:35:30;;;;;;;3.70;3.40;;;17.50;61.30;;;;;;5072411;28;20458;-73
2022/04/23 02:38:00;;;;;;;3.70;3.40;;;17.50;60.00;;;;;;5060504;28;20462;-72
2022/04/23 02:40:28;;;;;;;4.10;3.70;;;17.50;60.20;;;;;;5070611;28;20450;-72
2022/04/23 02:42:57;;;;;;;4.27;3.90;;;17.50;60.20;;;;;;5073688;28;20511;-72
2022/04/23 02:45:27;;;;;;;4.37;4.00;;;17.50;60.40;;;;;;5074160;28;20458;-73
2022/04/23 02:47:57;;;;;;;3.83;3.57;;;17.50;60.40;;;;;;5071521;28;20470;-73
2022/04/23 02:50:27;;;;;;;3.83;3.53;;;17.50;60.30;;;;;;5072863;28;20525;-73
2022/04/23 02:52:58;;;;;;;4.50;4.13;;;17.50;60.40;;;;;;5073794;28;20640;-73
2022/04/23 02:55:28;;;;;;;4.67;4.27;;;17.40;60.30;;;;;;5065744;28;20511;-73
2022/04/23 02:58:00;;;;;;;4.00;3.70;;;17.40;60.30;;;;;;5073699;28;20466;-72
2022/04/23 03:00:28;;;;;;;3.97;3.67;;;17.40;60.60;;;;;;5074421;28;20473;-73
2022/04/23 03:02:59;;;;;;;4.13;3.83;;;17.40;60.50;;;;;;5071870;28;20459;-73
2022/04/23 03:05:28;;;;;;;3.93;3.63;;;17.50;60.60;;;;;;5074042;28;20477;-75
2022/04/23 03:07:56;;;;;;;4.10;3.80;;;17.40;60.60;;;;;;5073790;28;20909;-73
2022/04/23 03:10:27;;;;;;;4.10;3.80;;;17.40;60.50;;;;;;5065235;28;20512;-72
2022/04/23 03:12:57;;;;;;;3.60;3.30;;;17.40;60.50;;;;;;5073460;28;20895;-73
2022/04/23 03:15:27;;;;;;;4.20;3.90;;;17.40;60.50;;;;;;5073187;28;20443;-73
2022/04/23 03:18:08;;;;;;;3.90;3.60;;;17.40;60.50;;;;;;5069104;28;20576;-73
2022/04/23 03:20:37;;;;;;;4.33;4.03;;;17.40;60.50;;;;;;5059942;28;20959;-73
2022/04/23 03:23:05;;;;;;;4.20;3.90;;;17.40;60.50;;;;;;5073548;28;20473;-72
2022/04/23 03:25:34;;;;;;;4.60;4.20;;;17.40;60.50;;;;;;5064647;28;20466;-73
2022/04/23 03:28:02;;;;;;;4.70;4.00;;;17.40;60.50;;;;;;5072756;28;20478;-73
2022/04/23 03:30:31;;;;;;;4.03;3.73;;;17.40;60.70;;;;;;5073653;28;20932;-73
2022/04/23 03:32:59;;;;;;;4.93;4.57;;;17.40;60.60;;;;;;5072037;28;20462;-72
2022/04/23 03:35:29;;;;;;;4.20;3.90;;;17.40;60.60;;;;;;5073548;28;20450;-73
2022/04/23 03:37:57;;;;;;;3.97;3.67;;;17.30;60.60;;;;;;5072659;28;20478;-73
2022/04/23 03:40:26;;;;;;;4.27;3.97;;;17.30;60.70;;;;;;5069996;28;20521;-73
2022/04/23 03:42:54;;;;;;;4.30;3.90;;;17.30;60.60;;;;;;5072658;28;20467;-73
2022/04/23 03:45:24;;;;;;;4.13;3.83;;;17.30;60.70;;;;;;5072669;28;20454;-73
2022/04/23 03:47:52;;;;;;;4.10;3.80;;;17.30;60.70;;;;;;5063532;28;20863;-73
2022/04/23 03:50:21;;;;;;;4.23;3.93;;;17.30;60.80;;;;;;5068592;28;20770;-73
2022/04/23 03:52:50;;;;;;;3.63;3.33;;;17.30;61.20;;;;;;5072413;28;20527;-71
2022/04/23 03:55:18;;;;;;;4.57;4.17;;;17.30;61.00;;;;;;5070848;28;20466;-73
2022/04/23 03:57:49;;;;;;;5.00;4.60;;;17.30;61.20;;;;;;5072276;28;20524;-74
2022/04/23 04:00:21;;;;;;;4.13;3.73;;;17.30;61.10;;;;;;5063652;28;20441;-73
2022/04/23 04:02:50;;;;;;;4.57;4.17;;;17.30;61.10;;;;;;5061568;28;20498;-73
2022/04/23 04:05:19;;;;;;;4.50;4.10;;;17.30;61.30;;;;;;5072621;28;20495;-73
2022/04/23 04:07:50;;;;;;;4.40;4.10;;;17.30;61.30;;;;;;5072631;28;20451;-73
2022/04/23 04:10:19;;;;;;;4.33;3.93;;;17.20;61.10;;;;;;5060586;28;20451;-73
2022/04/23 04:12:49;;;;;;;4.03;3.73;;;17.20;61.10;;;;;;5062413;28;20467;-73
2022/04/23 04:15:19;;;;;;;4.50;4.10;;;17.20;61.10;;;;;;5072270;28;20866;-73
2022/04/23 04:17:50;;;;;;;5.50;3.50;;;17.20;61.10;;;;;;5072258;28;20512;-73
2022/04/23 04:20:21;;;;;;;4.13;3.83;;;17.20;61.10;;;;;;5072210;28;20457;-73
2022/04/23 04:22:51;;;;;;;4.73;4.33;;;17.20;61.10;;;;;;5072016;28;20873;-72
2022/04/23 04:25:19;;;;;;;4.17;3.87;;;17.20;61.10;;;;;;5062692;28;20462;-73
2022/04/23 04:27:47;;;;;;;4.17;3.87;;;17.20;61.10;;;;;;5071294;28;20462;-73
2022/04/23 04:30:15;;;;;;;4.10;3.80;;;17.20;61.10;;;;;;5070715;28;22186;-73
2022/04/23 04:32:51;;;;;;;4.77;4.40;;;17.20;61.20;;;;;;5071905;28;20882;-73
2022/04/23 04:35:19;;;;;;;3.90;3.60;;;17.20;61.10;;;;;;5060464;28;20470;-72
2022/04/23 04:37:47;;;;;;;4.53;4.23;;;17.20;61.10;;;;;;5071880;28;20470;-73
2022/04/23 04:40:18;;;;;;;3.67;3.37;;;17.20;61.10;;;;;;5070018;28;20442;-73
2022/04/23 04:42:46;;;;;;;4.60;4.30;;;17.20;61.10;;;;;;5068182;28;20948;-73
2022/04/23 04:45:14;;;;;;;3.70;3.40;;;17.20;61.10;;;;;;5071280;28;20458;-73
2022/04/23 04:47:42;;;;;;;3.77;3.47;;;17.20;61.20;;;;;;5071957;28;20871;-73
2022/04/23 04:50:10;;;;;;;4.37;4.07;;;17.10;61.00;;;;;;5059626;28;20447;-73
2022/04/23 04:52:39;;;;;;;3.93;3.60;;;17.20;61.10;;;;;;5063260;28;20565;-73
2022/04/23 04:55:07;;;;;;;4.17;3.87;;;17.10;61.00;;;;;;5065671;28;20458;-74
2022/04/23 04:57:37;;;;;;;4.67;4.27;;;17.10;61.00;;;;;;5071631;28;20458;-73
2022/04/23 05:00:07;;;;;;;4.37;4.07;;;17.10;61.10;;;;;;5071451;28;20462;-73
2022/04/23 05:02:35;;;;;;;4.10;3.80;;;17.10;61.10;;;;;;5066148;28;20536;-71
2022/04/23 05:05:04;;;;;;;5.00;4.70;;;17.10;61.00;;;;;;5071510;28;20473;-73
2022/04/23 05:07:32;;;;;;;4.93;3.80;;;17.10;61.00;;;;;;5071638;28;20454;-73
2022/04/23 05:10:01;;;;;;;4.60;4.20;;;17.10;61.00;;;;;;5062040;28;20438;-73
2022/04/23 05:12:30;;;;;;;3.63;3.33;;;17.10;61.00;;;;;;5069025;28;20983;-74
2022/04/23 05:14:59;;;;;;;3.70;3.40;;;17.10;61.00;;;;;;5071763;28;20537;-72
2022/04/23 05:17:27;;;;;;;4.30;4.00;;;17.10;61.00;;;;;;5071718;28;20938;-73
2022/04/23 05:19:55;;;;;;;4.60;4.20;;;17.10;61.00;;;;;;5053466;28;20451;-73
2022/04/23 05:22:23;;;;;;;3.97;3.67;;;17.10;61.00;;;;;;5051274;28;20459;-72
2022/04/23 05:24:51;;;;;;;3.57;3.37;;;17.10;61.00;;;;;;5062872;28;20466;-73
2022/04/23 05:27:20;;;;;;;4.60;4.10;;;17.10;61.00;;;;;;5051383;28;20459;-73
2022/04/23 05:29:48;;;;;;;4.13;3.83;;;17.10;61.00;;;;;;5056184;28;20433;-73
2022/04/23 05:32:17;;;;;;;5.03;4.07;;;17.10;61.10;;;;;;5070822;28;20486;-73
2022/04/23 05:34:45;;;;;;;5.40;4.30;;;17.10;61.10;;;;;;5053556;28;20470;-73
2022/04/23 05:37:13;;;;;;;4.33;4.03;;;17.00;61.00;;;;;;5066805;28;20948;-73
2022/04/23 05:39:41;;;;;;;6.23;4.43;;;17.00;61.00;;;;;;5064502;28;20463;-72
2022/04/23 05:42:10;;;;;;;4.30;4.00;;;17.00;61.00;;;;;;5067610;28;20508;-73
2022/04/23 05:44:38;;;;;;;4.70;4.03;;;17.00;61.00;;;;;;5071367;28;20852;-73
2022/04/23 05:47:07;;;;;;;4.30;4.00;;;17.00;61.00;;;;;;5069805;28;20485;-73
2022/04/23 05:49:38;;;;;;;4.40;3.57;;;17.00;61.00;;;;;;5070904;28;20508;-73
2022/04/23 05:52:19;;;;;;;4.70;4.33;;;17.00;61.00;;;;;;5071139;28;20458;-72
2022/04/23 05:54:47;;;;;;;4.40;4.00;;;17.00;61.00;;;;;;5063202;28;20487;-73
2022/04/23 05:57:15;;;;;;;3.90;3.60;;;17.00;61.00;;;;;;5054176;28;20458;-73
2022/04/23 05:59:43;;;;;;;4.67;4.07;;;17.00;62.20;;;;;;5070964;28;20498;-73
2022/04/23 06:02:13;;;;;;;5.60;5.10;;;17.00;61.00;;;;;;5069037;28;20422;-73
2022/04/23 06:04:45;;;;;;;5.40;4.90;;;17.00;61.00;;;;;;5051188;28;20453;-73
2022/04/23 06:07:13;;;;;;;4.40;4.00;;;17.00;61.00;;;;;;5052595;28;20423;-73
2022/04/23 06:09:41;;;;;;;5.33;4.93;;;17.00;61.00;;;;;;5051350;28;20443;-73
2022/04/23 06:12:10;;;;;;;5.50;5.10;;;17.00;61.00;;;;;;5066650;28;20438;-73
2022/04/23 06:14:38;;;;;;;5.63;5.13;;;17.00;61.00;;;;;;5070717;28;21009;-73
2022/04/23 06:17:08;;;;;;;5.77;4.47;;;17.00;61.00;;;;;;5070001;28;20438;-72
2022/04/23 06:19:37;;;;;;;5.03;4.63;;;17.00;61.00;;;;;;5058266;28;20465;-73
2022/04/23 06:22:07;;;;;;;6.30;5.80;;;17.00;61.00;;;;;;5064633;28;20912;-73
2022/04/23 06:24:35;;;;;;;5.27;4.87;;;16.90;60.90;;;;;;5066817;28;20905;-72
2022/04/23 06:27:04;;;;;;;5.53;5.03;;;17.00;61.00;;;;;;5069789;28;20521;-72
2022/04/23 06:29:39;;;;;;;5.40;4.90;;;16.90;60.90;;;;;;5074855;28;20435;-73
2022/04/23 06:32:09;;;;;;;5.70;5.30;;;16.90;60.90;;;;;;5074291;28;20921;-73
2022/04/23 06:34:37;;;;;;;5.33;4.50;;;16.90;60.90;;;;;;5072934;28;20970;-72
2022/04/23 06:37:08;;;;;;;5.80;5.20;;;16.90;60.90;;;;;;5073783;28;20434;-73
2022/04/23 06:39:37;;;;;;;6.90;6.30;;;16.90;60.90;;;;;;5068205;28;20561;-72
2022/04/23 06:42:05;;;;;;;4.47;4.07;;;16.90;60.90;;;;;;5054136;28;20423;-73
2022/04/23 06:44:38;;;;;;;5.90;5.40;;;16.90;60.90;;;;;;5060033;28;20469;-73
2022/04/23 06:47:08;;;;;;;5.60;5.10;;;16.90;60.90;;;;;;5065581;28;20932;-73
2022/04/23 06:49:36;;;;;;;5.80;5.20;;;16.90;60.90;;;;;;5059129;28;20495;-72
2022/04/23 06:52:05;;;;;;;5.50;5.10;;;16.90;61.00;;;;;;5064254;28;20515;-73
2022/04/23 06:54:34;;;;;;;8.57;7.77;;;16.90;60.90;;;;;;5066433;28;20462;-72
2022/04/23 06:57:03;;;;;;;8.30;7.50;;;17.00;61.00;;;;;;5069414;28;20447;-73
2022/04/23 06:59:33;;;;;;;6.37;5.87;;;16.90;60.90;;;;;;5063839;28;20467;-73
2022/04/23 07:02:03;;;;;;;8.40;6.70;;;16.90;60.90;;;;;;5066497;28;20435;-72
2022/04/23 07:04:34;;;;;;;6.27;5.77;;;16.90;60.90;;;;;;5065173;28;20488;-73
2022/04/23 07:07:05;;;;;;;6.60;6.00;;;16.90;61.00;;;;;;5066084;28;20443;-72
2022/04/23 07:09:35;;;;;;;6.70;6.10;;;16.90;60.90;;;;;;5062473;28;20439;-73
2022/04/23 07:12:04;;;;;;;6.43;5.93;;;17.00;61.00;;;;;;5069680;28;20454;-73
2022/04/23 07:14:32;;;;;;;5.87;5.37;;;17.00;61.00;;;;;;5072628;28;21043;-73
2022/04/23 07:17:07;;;;;;;5.50;5.00;;;17.00;61.00;;;;;;5064913;28;20448;-72
2022/04/23 07:19:39;;;;;;;5.10;4.70;;;17.00;61.00;;;;;;5071280;28;21000;-73
2022/04/23 07:22:08;;;;;;;6.23;5.73;;;17.00;61.00;;;;;;5062719;28;20781;-73
2022/04/23 07:24:38;;;;;;;5.13;4.73;;;17.00;61.00;;;;;;5058715;28;20475;-73
2022/04/23 07:27:07;;;;;;;5.67;5.23;;;17.00;61.00;;;;;;5062523;28;20475;-73
2022/04/23 07:29:35;;;;;;;5.50;5.10;;;17.00;61.00;;;;;;5064597;28;20439;-73
2022/04/23 07:32:05;;;;;;;5.70;5.27;;;17.00;61.00;;;;;;5066787;28;20447;-73
2022/04/23 07:37:33;;;;;;;5.77;5.30;;;17.00;61.00;;;;;;5065448;28;20457;-73
2022/04/23 07:40:10;;;;;;;4.93;4.53;;;17.00;61.00;;;;;;5056162;28;20443;-72
2022/04/23 07:42:38;;;;;;;5.50;5.10;;;17.00;61.00;;;;;;5060575;28;20469;-73
2022/04/23 07:45:09;;;;;;;5.20;4.80;;;17.00;61.00;;;;;;5071163;28;20494;-72
2022/04/23 07:47:37;;;;;;;5.87;5.37;;;17.00;61.00;;;;;;5063619;28;20480;-73
2022/04/23 07:50:06;;;;;;;5.57;5.10;;;17.00;61.00;;;;;;5067563;28;20447;-72
2022/04/23 07:52:35;;;;;;;5.10;4.70;;;17.00;61.00;;;;;;5063704;28;20470;-72
2022/04/23 07:55:06;;;;;;;5.30;4.90;;;17.00;61.00;;;;;;5064316;28;20462;-73
2022/04/23 07:57:35;;;;;;;5.10;4.70;;;17.00;61.00;;;;;;5064172;28;20462;-73
2022/04/23 08:00:04;;;;;;;5.93;5.43;;;17.00;61.00;;;;;;5064405;28;20467;-73
2022/04/23 08:02:38;;;;;;;10.20;5.20;;;17.00;60.90;;;;;;5059877;28;20848;-73
2022/04/23 08:05:09;;;;;;;5.37;4.97;;;17.00;61.00;;;;;;5062970;28;20502;-73
2022/04/23 08:07:39;;;;;;;5.60;5.10;;;17.00;61.00;;;;;;5061509;28;20459;-74
2022/04/23 08:10:10;;;;;;;5.60;5.20;;;17.00;61.00;;;;;;5065208;28;20557;-72
2022/04/23 08:12:39;;;;;;;5.43;4.93;;;17.00;61.00;;;;;;5060555;28;20536;-73
2022/04/23 08:15:08;;;;;;;5.60;5.20;;;17.00;61.00;;;;;;5066653;28;20451;-72
2022/04/23 08:17:36;;;;;;;9.70;7.90;;;16.90;60.90;;;;;;5069030;28;20470;-73
2022/04/23 08:20:05;;;;;;;11.10;7.60;;;17.00;60.50;;;;;;5057200;28;20471;-73
2022/04/23 08:22:33;;;;;;;10.20;8.43;;;17.00;59.50;;;;;;5070573;28;20504;-72
2022/04/23 08:25:02;;;;;;;9.10;7.47;;;17.00;60.90;;;;;;5056763;28;20512;-73
2022/04/23 08:27:46;;;;;;;9.03;8.23;;;17.00;59.60;;;;;;5060880;28;20455;-73
2022/04/23 08:33:00;;;;;;;6.10;5.47;;;17.00;59.10;;;;;;5065640;28;20462;-73
2022/04/23 08:35:28;;;;;;;7.10;6.37;;;17.00;59.50;;;;;;5060587;28;20459;-73
2022/04/23 08:37:56;;;;;;;6.37;5.70;;;17.00;59.60;;;;;;5060834;28;21070;-73
2022/04/23 08:40:26;;;;;;;14.47;7.00;;;17.00;59.70;;;;;;5064941;28;20430;-72
2022/04/23 08:42:55;;;;;;;12.50;7.17;;;17.00;59.60;;;;;;5061386;28;20863;-73
2022/04/23 08:45:25;;;;;;;7.23;6.53;;;16.90;59.70;;;;;;5069976;28;20462;-73
2022/04/23 08:47:56;;;;;;;8.70;6.37;;;16.90;59.70;;;;;;5065949;28;20462;-73
2022/04/23 08:50:26;;;;;;;8.00;5.57;;;16.90;59.80;;;;;;5064810;28;20503;-73
2022/04/23 08:52:57;;;;;;;6.93;6.10;;;16.90;59.90;;;;;;5068452;28;20470;-72
2022/04/23 08:55:27;;;;;;;8.70;5.37;;;16.90;59.90;;;;;;5057610;28;20570;-73
2022/04/23 08:57:58;;;;;;;8.70;6.53;;;16.90;59.90;;;;;;5061018;28;21003;-73
2022/04/23 09:00:26;;;;;;;10.53;5.87;;;16.90;59.90;;;;;;5065140;28;20450;-74
2022/04/23 09:02:56;;;;;;;8.17;5.70;;;16.90;61.20;;;;;;5062831;28;20519;-74
2022/04/23 09:05:27;;;;;;;5.53;5.03;;;16.90;60.10;;;;;;5063563;28;20828;-73
2022/04/23 09:07:56;;;;;;;7.10;5.50;;;16.90;60.10;;;;;;5068255;28;20561;-73
2022/04/23 09:10:44;;;;;;;8.73;6.07;;;16.90;60.10;;;;;;5061977;28;20466;-73
2022/04/23 09:13:25;;;;;;;5.13;4.70;;;16.90;60.10;;;;;;5063969;28;20465;-73
2022/04/23 09:24:45;;;;;;;7.93;6.00;;;17.00;60.30;;;;;;5061542;28;20848;-73
2022/04/23 09:27:13;;;;;;;6.27;5.67;;;17.00;60.20;;;;;;5059389;28;20932;-73
2022/04/23 09:29:58;;;;;;;6.20;5.63;;;17.00;60.30;;;;;;5066830;28;20442;-73
2022/04/23 09:32:27;;;;;;;5.70;5.10;;;17.00;60.40;;;;;;5068783;28;20469;-73
2022/04/23 09:35:05;;;;;;;6.20;5.60;;;17.00;60.40;;;;;;5052645;28;20474;-74
2022/04/23 09:40:21;;;;;;;4.80;4.40;;;16.90;60.70;;;;;;5058572;28;20442;-72
2022/04/23 09:42:57;;;;;;;6.30;5.20;;;17.00;61.00;;;;;;5068898;28;20478;-73
2022/04/23 09:45:28;;;;;;;5.57;4.90;;;17.00;61.00;;;;;;5070300;28;20527;-74
2022/04/23 09:48:13;;;;;;;5.80;5.00;;;17.00;61.00;;;;;;5057076;28;20474;-73
2022/04/23 09:50:43;;;;;;;4.83;4.37;;;17.00;61.00;;;;;;5064058;28;20446;-73
2022/04/23 09:53:12;;;;;;;6.03;4.40;;;17.00;61.00;;;;;;5070058;28;20482;-73
2022/04/23 09:55:40;;;;;;;5.37;4.87;;;17.00;62.20;;;;;;5062264;28;20479;-73
2022/04/23 09:58:10;;;;;;;6.17;5.67;;;17.00;61.00;;;;;;5070356;28;20470;-73
2022/04/23 10:00:41;;;;;;;5.07;4.57;;;17.00;61.00;;;;;;5066698;28;20443;-73
2022/04/23 10:03:11;;;;;;;5.90;5.43;;;17.00;61.00;;;;;;5058212;28;20852;-73
2022/04/23 10:05:42;;;;;;;5.73;5.27;;;17.00;61.00;;;;;;5066129;28;20498;-73
2022/04/23 10:08:12;;;;;;;4.87;4.47;;;17.00;61.00;;;;;;5066131;28;20466;-73
2022/04/23 10:10:53;;;;;;;7.50;4.53;;;17.00;61.00;;;;;;5066387;28;20533;-73
2022/04/23 10:13:23;;;;;;;6.17;4.77;;;17.00;61.00;;;;;;5068497;28;20473;-73
2022/04/23 10:15:54;;;;;;;9.77;6.40;;;17.00;61.00;;;;;;5072482;28;20426;-71
2022/04/23 10:18:23;;;;;;;6.30;5.73;;;17.00;61.00;;;;;;5064105;28;20545;-73
2022/04/23 10:20:55;;;;;;;6.80;6.27;;;17.00;60.50;;;;;;5064707;28;20433;-73
2022/04/23 10:23:31;;;;;;;7.33;6.73;;;17.10;59.90;;;;;;5067965;28;20512;-72
2022/04/23 10:26:23;;;;;;;7.72;6.50;;;17.10;59.40;;;;;;5064721;28;20351;-74
2022/04/23 10:28:52;;;;;;;12.35;7.00;;;17.20;59.30;;;;;;5063659;28;20443;-73
2022/04/23 10:31:23;;;;;;;7.17;6.30;;;17.20;59.30;;;;;;5072798;28;20761;-73
2022/04/23 10:33:52;;;;;;;9.93;6.17;;;17.20;59.00;;;;;;5062057;28;20467;-73
2022/04/23 10:36:22;;;;;;;9.40;6.20;;;17.20;59.20;;;;;;5071227;28;20908;-73
2022/04/23 10:39:22;;;;;;;10.63;6.30;;;17.10;59.50;;;;;;5063864;28;20565;-73
2022/04/23 10:41:52;;;;;;;13.10;6.20;;;17.10;59.80;;;;;;5073743;28;20446;-73
2022/04/23 10:44:22;;;;;;;17.33;6.33;;;17.10;59.80;;;;;;5064030;28;21060;-72
2022/04/23 10:46:56;;;;;;;15.00;7.00;;;17.10;60.10;;;;;;5063038;28;20502;-72
2022/04/23 10:49:25;;;;;;;8.53;5.93;;;17.10;60.50;;;;;;5063619;28;20469;-73
2022/04/23 10:51:57;;;;;;;14.50;6.90;;;17.10;60.20;;;;;;5059780;28;20453;-73
2022/04/23 10:54:56;;;;;;;12.30;5.60;;;17.10;60.30;;;;;;5072086;28;20813;-73
2022/04/23 10:57:25;;;;;;;8.87;6.20;;;17.10;60.40;;;;;;5064372;28;20469;-73
2022/04/23 10:59:53;;;;;;;12.63;6.00;;;17.10;60.50;;;;;;5064116;28;20872;-73
2022/04/23 11:02:33;;;;;;;14.77;6.22;;;17.10;60.30;;;;;;5069889;28;20471;-73
2022/04/23 11:13:31;;;;;;;8.97;6.30;;;17.20;59.70;;;;;;5061768;28;20509;-74
2022/04/23 11:16:14;;;;;;;9.70;5.80;;;17.10;60.00;;;;;;5065931;28;20516;-73
2022/04/23 11:18:46;;;;;;;7.17;5.20;;;17.10;60.40;;;;;;5063898;28;20471;-73
2022/04/23 11:21:21;;;;;;;9.17;5.47;;;17.10;60.60;;;;;;5064522;28;20530;-74
2022/04/23 11:23:49;;;;;;;7.33;5.13;;;17.10;61.00;;;;;;5063045;28;20465;-73
2022/04/23 11:26:18;;;;;;;8.17;6.10;;;17.10;60.90;;;;;;5060344;28;20466;-74
2022/04/23 11:28:47;;;;;;;18.93;6.27;;;17.10;60.70;;;;;;5057211;28;20541;-73
2022/04/23 11:31:17;;;;;;;8.30;5.80;;;17.20;60.80;;;;;;5059214;28;20433;-73
2022/04/23 11:33:54;;;;;;;8.37;5.70;;;17.20;60.50;;;;;;5068981;28;20490;-73
2022/04/23 11:36:27;;;;;;;7.37;6.27;;;17.20;60.40;;;;;;5067942;28;20479;-73
2022/04/23 11:38:55;;;;;;;6.20;5.37;;;17.20;60.40;;;;;;5072301;28;20542;-73
2022/04/23 11:41:31;;;;;;;8.67;6.20;;;17.10;60.80;;;;;;5053707;28;20428;-73
2022/04/23 11:44:10;;;;;;;5.93;5.33;;;17.10;61.00;;;;;;5065376;28;20530;-73
2022/04/23 11:46:43;;;;;;;7.47;6.07;;;17.10;61.10;;;;;;5073916;28;20842;-73
2022/04/23 11:49:26;;;;;;;7.17;5.60;;;17.10;61.10;;;;;;5069620;28;20813;-73
2022/04/23 11:52:00;;;;;;;5.27;4.60;;;17.10;61.00;;;;;;5071628;28;21059;-73
2022/04/23 11:54:33;;;;;;;6.73;4.73;;;17.10;61.00;;;;;;5067744;28;20471;-73
2022/04/23 11:57:01;;;;;;;6.37;5.77;;;17.10;61.00;;;;;;5052119;28;20427;-73
2022/04/23 11:59:37;;;;;;;7.13;5.67;;;17.00;61.00;;;;;;5069338;28;20492;-73
2022/04/23 12:02:06;;;;;;;6.80;4.43;;;17.00;61.00;;;;;;5059959;28;20447;-73
2022/04/23 12:04:43;;;;;;;7.90;4.60;;;17.10;61.10;;;;;;5068746;28;20446;-73
2022/04/23 18:13:42;;;;;;;8.40;7.47;;;17.50;60.40;;;;;;5090934;27;20545;-46
2022/04/23 18:16:11;;;;;;;15.10;11.20;;;17.40;61.40;;;;;;5031655;28;20545;-48
2022/04/23 18:18:39;;;;;;;12.70;11.50;;;17.40;60.10;;;;;;5049329;28;20461;-46
2022/04/23 18:21:08;;;;;;;10.00;8.90;;;17.40;60.00;;;;;;5058139;28;20991;-48
2022/04/23 18:23:36;;;;;;;12.37;10.27;;;17.40;60.60;;;;;;5046648;28;20459;-47
2022/04/23 18:26:04;;;;;;;10.53;9.53;;;17.40;60.90;;;;;;5036039;28;20459;-47
2022/04/23 18:28:33;;;;;;;11.00;9.53;;;17.40;61.10;;;;;;5039205;28;20521;-49
2022/04/23 18:31:03;;;;;;;10.90;9.90;;;17.40;61.20;;;;;;5039021;28;20808;-47
2022/04/23 18:33:31;;;;;;;11.40;10.20;;;17.50;61.50;;;;;;5043825;28;20478;-46
2022/04/23 18:36:00;;;;;;;12.70;11.40;;;17.50;60.60;;;;;;5059184;28;20439;-47
2022/04/23 18:38:28;;;;;;;15.07;13.60;;;17.50;59.40;;;;;;5057838;28;20819;-46
2022/04/23 18:41:16;;;;;;;11.93;10.80;;;17.40;58.60;;;;;;5047075;28;20203;-47
2022/04/23 18:43:44;;;;;;;12.40;11.27;;;17.40;58.70;;;;;;5061022;28;20896;-47
2022/04/23 18:46:14;;;;;;;12.47;10.60;;;17.40;58.80;;;;;;5063762;28;20823;-47
2022/04/23 18:48:42;;;;;;;12.93;10.30;;;17.40;59.10;;;;;;5058313;28;20478;-48
2022/04/23 18:51:10;;;;;;;12.40;11.20;;;17.40;59.10;;;;;;5059039;28;20468;-46
2022/04/23 18:53:38;;;;;;;10.43;9.43;;;17.40;59.30;;;;;;5058204;28;20466;-46
2022/04/23 18:56:07;;;;;;;11.67;10.67;;;17.50;59.50;;;;;;5055653;28;20893;-48
2022/04/23 18:58:36;;;;;;;10.93;9.90;;;17.50;59.40;;;;;;5059169;28;20574;-47
2022/04/23 19:01:08;;;;;;;11.17;10.00;;;17.50;59.60;;;;;;5059870;28;21078;-46
2022/04/23 19:03:38;;;;;;;11.80;10.60;;;17.50;59.40;;;;;;5030368;28;20502;-48
2022/04/23 19:06:06;;;;;;;10.83;9.93;;;17.50;59.50;;;;;;5037647;28;20513;-47
2022/04/23 19:08:35;;;;;;;11.40;10.40;;;17.50;59.50;;;;;;5039426;28;20471;-48
2022/04/23 19:11:04;;;;;;;10.87;9.80;;;17.60;59.50;;;;;;5034163;28;20439;-47
2022/04/23 19:13:33;;;;;;;11.50;10.30;;;17.60;59.50;;;;;;5050428;28;20626;-47
2022/04/23 19:16:01;;;;;;;9.43;8.63;;;17.60;59.50;;;;;;5056654;28;21021;-46
2022/04/23 19:18:29;;;;;;;11.03;9.93;;;17.60;59.50;;;;;;5052939;28;20499;-47
2022/04/23 19:29:17;;;;;;;10.00;9.00;;;17.60;59.60;;;;;;5044760;28;20561;-45
2022/04/23 19:31:46;;;;;;;11.23;10.27;;;17.60;59.60;;;;;;5045266;28;20431;-46
2022/04/23 19:34:14;;;;;;;10.83;9.83;;;17.60;59.40;;;;;;5036577;28;20536;-47
2022/04/23 19:36:43;;;;;;;10.17;9.17;;;17.60;59.40;;;;;;5044776;28;20431;-47
2022/04/23 19:39:12;;;;;;;10.17;9.27;;;17.70;59.60;;;;;;5041565;28;20517;-46
2022/04/23 19:41:41;;;;;;;11.27;10.17;;;17.60;59.50;;;;;;5041357;28;20435;-47